sensor_id;sensor_type;location;lat;lon;timestamp;pressure;altitude;pressure_sealevel;temperature;humidity
43115;BME280;28727;50.068;14.452;2023-03-03T00:00:56;99582.78;;;1.85;55.79
43115;BME280;28727;50.068;14.452;2023-03-03T00:03:28;99582.88;;;1.83;55.68
43115;BME280;28727;50.068;14.452;2023-03-03T00:06:02;99592.69;;;1.80;56.36
43115;BME280;28727;50.068;14.452;2023-03-03T00:08:36;99588.53;;;1.77;56.30
43115;BME280;28727;50.068;14.452;2023-03-03T00:11:13;99595.53;;;1.77;56.38
43115;BME280;28727;50.068;14.452;2023-03-03T00:13:47;99594.69;;;1.76;56.46
43115;BME280;28727;50.068;14.452;2023-03-03T00:18:55;99596.88;;;1.70;57.24
43115;BME280;28727;50.068;14.452;2023-03-03T00:21:49;99582.94;;;1.71;56.93
43115;BME280;28727;50.068;14.452;2023-03-03T00:24:35;99583.22;;;1.66;57.32
43115;BME280;28727;50.068;14.452;2023-03-03T00:27:30;99580.22;;;1.59;57.48
43115;BME280;28727;50.068;14.452;2023-03-03T00:30:02;99582.22;;;1.56;57.68
43115;BME280;28727;50.068;14.452;2023-03-03T00:32:42;99577.09;;;1.54;57.64
43115;BME280;28727;50.068;14.452;2023-03-03T00:38:10;99579.84;;;1.53;57.72
43115;BME280;28727;50.068;14.452;2023-03-03T00:40:43;99583.38;;;1.52;57.59
43115;BME280;28727;50.068;14.452;2023-03-03T00:43:23;99584.06;;;1.54;57.60
43115;BME280;28727;50.068;14.452;2023-03-03T00:45:55;99586.69;;;1.54;57.58
43115;BME280;28727;50.068;14.452;2023-03-03T00:48:41;99581.47;;;1.54;57.81
43115;BME280;28727;50.068;14.452;2023-03-03T00:54:21;99582.88;;;1.47;57.56
43115;BME280;28727;50.068;14.452;2023-03-03T00:56:53;99585.66;;;1.44;57.51
43115;BME280;28727;50.068;14.452;2023-03-03T00:59:25;99584.22;;;1.40;57.74
43115;BME280;28727;50.068;14.452;2023-03-03T01:01:57;99578.28;;;1.38;58.12
43115;BME280;28727;50.068;14.452;2023-03-03T01:04:29;99572.22;;;1.37;58.05
43115;BME280;28727;50.068;14.452;2023-03-03T01:07:01;99569.03;;;1.34;58.20
43115;BME280;28727;50.068;14.452;2023-03-03T01:09:33;99568.28;;;1.32;57.97
43115;BME280;28727;50.068;14.452;2023-03-03T01:12:05;99563.19;;;1.30;57.98
43115;BME280;28727;50.068;14.452;2023-03-03T01:14:37;99567.56;;;1.30;58.31
43115;BME280;28727;50.068;14.452;2023-03-03T01:17:13;99564.34;;;1.26;58.47
43115;BME280;28727;50.068;14.452;2023-03-03T01:19:45;99557.47;;;1.25;58.33
43115;BME280;28727;50.068;14.452;2023-03-03T01:22:17;99560.91;;;1.26;58.62
43115;BME280;28727;50.068;14.452;2023-03-03T01:24:49;99560.06;;;1.25;58.25
43115;BME280;28727;50.068;14.452;2023-03-03T01:27:24;99556.84;;;1.21;58.48
43115;BME280;28727;50.068;14.452;2023-03-03T01:29:55;99556.22;;;1.18;58.82
43115;BME280;28727;50.068;14.452;2023-03-03T01:32:27;99555.50;;;1.16;58.56
43115;BME280;28727;50.068;14.452;2023-03-03T01:34:59;99557.38;;;1.14;58.55
43115;BME280;28727;50.068;14.452;2023-03-03T01:37:33;99559.34;;;1.10;58.79
43115;BME280;28727;50.068;14.452;2023-03-03T01:40:14;99560.38;;;1.08;58.64
43115;BME280;28727;50.068;14.452;2023-03-03T01:42:46;99553.63;;;1.05;58.81
43115;BME280;28727;50.068;14.452;2023-03-03T01:48:04;99553.81;;;1.02;58.91
43115;BME280;28727;50.068;14.452;2023-03-03T01:50:44;99553.09;;;1.00;59.28
43115;BME280;28727;50.068;14.452;2023-03-03T01:53:21;99552.56;;;0.95;59.51
43115;BME280;28727;50.068;14.452;2023-03-03T01:55:54;99551.72;;;0.95;59.63
43115;BME280;28727;50.068;14.452;2023-03-03T01:58:29;99556.13;;;0.94;59.53
43115;BME280;28727;50.068;14.452;2023-03-03T02:01:03;99553.81;;;0.90;59.84
43115;BME280;28727;50.068;14.452;2023-03-03T02:03:37;99553.09;;;0.88;59.61
43115;BME280;28727;50.068;14.452;2023-03-03T02:06:13;99554.97;;;0.86;59.75
43115;BME280;28727;50.068;14.452;2023-03-03T02:11:44;99552.56;;;0.82;60.22
43115;BME280;28727;50.068;14.452;2023-03-03T02:14:18;99543.41;;;0.77;60.16
43115;BME280;28727;50.068;14.452;2023-03-03T02:16:50;99549.66;;;0.74;60.15
43115;BME280;28727;50.068;14.452;2023-03-03T02:22:48;99535.06;;;0.72;60.48
43115;BME280;28727;50.068;14.452;2023-03-03T02:26:15;99542.25;;;0.68;60.83
43115;BME280;28727;50.068;14.452;2023-03-03T02:28:30;99542.34;;;0.67;60.79
43115;BME280;28727;50.068;14.452;2023-03-03T02:31:14;99537.25;;;0.65;60.87
43115;BME280;28727;50.068;14.452;2023-03-03T02:33:51;99536.53;;;0.63;60.70
43115;BME280;28727;50.068;14.452;2023-03-03T02:36:34;99536.84;;;0.59;60.96
43115;BME280;28727;50.068;14.452;2023-03-03T02:39:14;99540.38;;;0.58;60.78
43115;BME280;28727;50.068;14.452;2023-03-03T02:44:52;99539.63;;;0.56;61.29
43115;BME280;28727;50.068;14.452;2023-03-03T02:47:24;99543.06;;;0.56;61.68
43115;BME280;28727;50.068;14.452;2023-03-03T02:49:56;99539.63;;;0.56;61.42
43115;BME280;28727;50.068;14.452;2023-03-03T02:52:27;99549.19;;;0.55;61.48
43115;BME280;28727;50.068;14.452;2023-03-03T02:55:02;99546.81;;;0.52;61.68
43115;BME280;28727;50.068;14.452;2023-03-03T02:57:35;99563.41;;;0.50;61.61
43115;BME280;28727;50.068;14.452;2023-03-03T03:00:09;99560.19;;;0.46;61.95
43115;BME280;28727;50.068;14.452;2023-03-03T03:02:43;99563.00;;;0.43;62.09
43115;BME280;28727;50.068;14.452;2023-03-03T03:05:15;99568.19;;;0.43;62.14
43115;BME280;28727;50.068;14.452;2023-03-03T03:07:50;99563.91;;;0.42;62.16
43115;BME280;28727;50.068;14.452;2023-03-03T03:10:25;99564.03;;;0.40;62.02
43115;BME280;28727;50.068;14.452;2023-03-03T03:12:57;99565.06;;;0.38;62.21
43115;BME280;28727;50.068;14.452;2023-03-03T03:15:28;99571.09;;;0.38;62.35
43115;BME280;28727;50.068;14.452;2023-03-03T03:18:02;99564.22;;;0.37;62.48
43115;BME280;28727;50.068;14.452;2023-03-03T03:20:37;99563.38;;;0.37;62.39
43115;BME280;28727;50.068;14.452;2023-03-03T03:23:11;99557.34;;;0.36;62.59
43115;BME280;28727;50.068;14.452;2023-03-03T03:25:43;99560.06;;;0.35;62.42
43115;BME280;28727;50.068;14.452;2023-03-03T03:28:25;99565.44;;;0.32;62.45
43115;BME280;28727;50.068;14.452;2023-03-03T03:30:59;99558.78;;;0.28;62.31
43115;BME280;28727;50.068;14.452;2023-03-03T03:33:31;99551.94;;;0.27;62.38
43115;BME280;28727;50.068;14.452;2023-03-03T03:36:07;99552.22;;;0.22;62.75
43115;BME280;28727;50.068;14.452;2023-03-03T03:38:39;99555.53;;;0.24;62.55
43115;BME280;28727;50.068;14.452;2023-03-03T03:41:12;99548.59;;;0.25;62.36
43115;BME280;28727;50.068;14.452;2023-03-03T03:43:44;99553.91;;;0.23;62.53
43115;BME280;28727;50.068;14.452;2023-03-03T03:46:16;99548.72;;;0.23;62.35
43115;BME280;28727;50.068;14.452;2023-03-03T03:48:48;99546.91;;;0.24;61.92
43115;BME280;28727;50.068;14.452;2023-03-03T03:51:23;99538.31;;;0.23;62.15
43115;BME280;28727;50.068;14.452;2023-03-03T03:53:57;99545.38;;;0.21;62.07
43115;BME280;28727;50.068;14.452;2023-03-03T03:56:29;99536.91;;;0.18;62.15
43115;BME280;28727;50.068;14.452;2023-03-03T03:59:05;99533.69;;;0.14;61.85
43115;BME280;28727;50.068;14.452;2023-03-03T04:01:38;99540.75;;;0.12;62.02
43115;BME280;28727;50.068;14.452;2023-03-03T04:04:10;99533.91;;;0.11;62.43
43115;BME280;28727;50.068;14.452;2023-03-03T04:06:42;99539.19;;;0.10;62.34
43115;BME280;28727;50.068;14.452;2023-03-03T04:09:15;99540.88;;;0.11;62.36
43115;BME280;28727;50.068;14.452;2023-03-03T04:11:52;99551.34;;;0.09;62.48
43115;BME280;28727;50.068;14.452;2023-03-03T04:14:25;99549.69;;;0.08;62.08
43115;BME280;28727;50.068;14.452;2023-03-03T04:17:07;99558.50;;;0.06;62.58
43115;BME280;28727;50.068;14.452;2023-03-03T04:19:39;99556.84;;;0.05;62.71
43115;BME280;28727;50.068;14.452;2023-03-03T04:22:11;99563.78;;;0.04;62.64
43115;BME280;28727;50.068;14.452;2023-03-03T04:24:44;99570.00;;;0.02;63.04
43115;BME280;28727;50.068;14.452;2023-03-03T04:27:16;99566.56;;;0.01;62.95
43115;BME280;28727;50.068;14.452;2023-03-03T04:29:48;99565.94;;;-0.03;63.08
43115;BME280;28727;50.068;14.452;2023-03-03T04:32:20;99555.03;;;-0.08;63.52
43115;BME280;28727;50.068;14.452;2023-03-03T04:35:20;99568.09;;;-0.09;63.25
43115;BME280;28727;50.068;14.452;2023-03-03T04:37:54;99567.34;;;-0.11;63.35
43115;BME280;28727;50.068;14.452;2023-03-03T04:40:29;99563.81;;;-0.10;63.37
43115;BME280;28727;50.068;14.452;2023-03-03T04:43:06;99574.28;;;-0.12;63.43
43115;BME280;28727;50.068;14.452;2023-03-03T04:45:38;99564.31;;;-0.18;63.36
43115;BME280;28727;50.068;14.452;2023-03-03T04:48:11;99566.34;;;-0.23;63.76
43115;BME280;28727;50.068;14.452;2023-03-03T04:50:45;99569.97;;;-0.25;64.08
43115;BME280;28727;50.068;14.452;2023-03-03T04:53:17;99574.34;;;-0.26;63.79
43115;BME280;28727;50.068;14.452;2023-03-03T04:55:52;99568.31;;;-0.26;63.61
43115;BME280;28727;50.068;14.452;2023-03-03T04:58:25;99574.44;;;-0.27;63.56
43115;BME280;28727;50.068;14.452;2023-03-03T05:00:59;99571.06;;;-0.29;64.01
43115;BME280;28727;50.068;14.452;2023-03-03T05:03:33;99562.38;;;-0.28;64.06
43115;BME280;28727;50.068;14.452;2023-03-03T05:06:08;99561.53;;;-0.29;63.67
43115;BME280;28727;50.068;14.452;2023-03-03T05:08:40;99560.81;;;-0.31;64.08
43115;BME280;28727;50.068;14.452;2023-03-03T05:11:14;99559.97;;;-0.31;63.62
43115;BME280;28727;50.068;14.452;2023-03-03T05:13:46;99560.81;;;-0.31;63.86
43115;BME280;28727;50.068;14.452;2023-03-03T05:16:24;99566.72;;;-0.29;63.85
43115;BME280;28727;50.068;14.452;2023-03-03T05:18:56;99563.41;;;-0.31;63.98
43115;BME280;28727;50.068;14.452;2023-03-03T05:21:28;99564.34;;;-0.32;63.54
43115;BME280;28727;50.068;14.452;2023-03-03T05:24:00;99572.13;;;-0.32;63.19
43115;BME280;28727;50.068;14.452;2023-03-03T05:26:32;99565.34;;;-0.34;63.35
43115;BME280;28727;50.068;14.452;2023-03-03T05:29:05;99563.69;;;-0.35;63.41
43115;BME280;28727;50.068;14.452;2023-03-03T05:31:37;99575.09;;;-0.38;64.03
43115;BME280;28727;50.068;14.452;2023-03-03T05:34:10;99580.38;;;-0.39;63.66
43115;BME280;28727;50.068;14.452;2023-03-03T05:36:41;99585.56;;;-0.39;63.91
43115;BME280;28727;50.068;14.452;2023-03-03T05:39:13;99582.13;;;-0.40;63.92
43115;BME280;28727;50.068;14.452;2023-03-03T05:41:45;99590.66;;;-0.38;63.92
43115;BME280;28727;50.068;14.452;2023-03-03T05:44:17;99592.34;;;-0.37;64.15
43115;BME280;28727;50.068;14.452;2023-03-03T05:46:51;99595.75;;;-0.36;64.14
43115;BME280;28727;50.068;14.452;2023-03-03T05:49:23;99603.63;;;-0.38;64.42
43115;BME280;28727;50.068;14.452;2023-03-03T05:51:55;99600.13;;;-0.37;64.03
43115;BME280;28727;50.068;14.452;2023-03-03T05:54:26;99606.88;;;-0.34;63.84
43115;BME280;28727;50.068;14.452;2023-03-03T05:57:01;99607.69;;;-0.34;64.20
43115;BME280;28727;50.068;14.452;2023-03-03T05:59:33;99624.09;;;-0.33;64.32
43115;BME280;28727;50.068;14.452;2023-03-03T06:02:05;99628.28;;;-0.31;64.30
43115;BME280;28727;50.068;14.452;2023-03-03T06:04:42;99630.59;;;-0.26;64.32
43115;BME280;28727;50.068;14.452;2023-03-03T06:07:13;99634.78;;;-0.24;64.12
43115;BME280;28727;50.068;14.452;2023-03-03T06:09:45;99626.13;;;-0.10;64.23
43115;BME280;28727;50.068;14.452;2023-03-03T06:12:17;99653.41;;;0.24;63.92
43115;BME280;28727;50.068;14.452;2023-03-03T06:14:50;99653.72;;;0.73;63.01
43115;BME280;28727;50.068;14.452;2023-03-03T06:17:22;99649.84;;;1.18;62.20
43115;BME280;28727;50.068;14.452;2023-03-03T06:19:55;99654.75;;;1.86;61.07
43115;BME280;28727;50.068;14.452;2023-03-03T06:22:30;99661.53;;;2.61;59.06
43115;BME280;28727;50.068;14.452;2023-03-03T06:25:02;99661.72;;;3.41;56.71
43115;BME280;28727;50.068;14.452;2023-03-03T06:27:34;99664.81;;;4.01;55.81
43115;BME280;28727;50.068;14.452;2023-03-03T06:30:10;99665.22;;;4.62;54.62
43115;BME280;28727;50.068;14.452;2023-03-03T06:32:45;99660.53;;;5.50;52.77
43115;BME280;28727;50.068;14.452;2023-03-03T06:35:17;99674.50;;;6.51;50.66
43115;BME280;28727;50.068;14.452;2023-03-03T06:37:49;99674.25;;;7.31;48.01
43115;BME280;28727;50.068;14.452;2023-03-03T06:40:21;99676.47;;;7.92;47.33
43115;BME280;28727;50.068;14.452;2023-03-03T06:42:55;99683.72;;;8.17;45.65
43115;BME280;28727;50.068;14.452;2023-03-03T06:45:27;99694.75;;;8.31;45.41
43115;BME280;28727;50.068;14.452;2023-03-03T06:47:58;99701.19;;;8.46;45.47
43115;BME280;28727;50.068;14.452;2023-03-03T06:50:30;99691.56;;;8.54;44.90
43115;BME280;28727;50.068;14.452;2023-03-03T06:53:14;99690.59;;;8.55;44.00
43115;BME280;28727;50.068;14.452;2023-03-03T06:55:46;99689.63;;;8.56;44.84
43115;BME280;28727;50.068;14.452;2023-03-03T06:58:20;99695.25;;;8.44;45.27
43115;BME280;28727;50.068;14.452;2023-03-03T07:01:00;99698.84;;;7.30;46.86
43115;BME280;28727;50.068;14.452;2023-03-03T07:03:33;99700.38;;;6.85;47.63
43115;BME280;28727;50.068;14.452;2023-03-03T07:06:15;99699.59;;;6.04;49.18
43115;BME280;28727;50.068;14.452;2023-03-03T07:08:53;99700.28;;;5.03;50.97
43115;BME280;28727;50.068;14.452;2023-03-03T07:11:26;99711.97;;;4.44;52.63
43115;BME280;28727;50.068;14.452;2023-03-03T07:13:57;99712.94;;;3.99;53.93
43115;BME280;28727;50.068;14.452;2023-03-03T07:16:29;99705.19;;;3.53;55.73
43115;BME280;28727;50.068;14.452;2023-03-03T07:19:02;99713.63;;;3.21;57.12
43115;BME280;28727;50.068;14.452;2023-03-03T07:21:40;99714.28;;;3.12;57.46
43115;BME280;28727;50.068;14.452;2023-03-03T07:24:24;99710.94;;;2.99;58.36
43115;BME280;28727;50.068;14.452;2023-03-03T07:27:13;99716.59;;;2.69;58.38
43115;BME280;28727;50.068;14.452;2023-03-03T07:29:50;99721.84;;;2.57;60.22
43115;BME280;28727;50.068;14.452;2023-03-03T07:34:57;99729.28;;;2.74;60.85
43115;BME280;28727;50.068;14.452;2023-03-03T07:37:38;99728.56;;;2.96;60.94
43115;BME280;28727;50.068;14.452;2023-03-03T07:40:47;99723.47;;;3.18;60.00
43115;BME280;28727;50.068;14.452;2023-03-03T07:43:36;99725.25;;;3.63;59.87
43115;BME280;28727;50.068;14.452;2023-03-03T07:48:48;99715.53;;;4.98;57.34
43115;BME280;28727;50.068;14.452;2023-03-03T07:57:28;99699.03;;;7.85;50.17
43115;BME280;28727;50.068;14.452;2023-03-03T08:02:59;99710.53;;;9.38;46.47
43115;BME280;28727;50.068;14.452;2023-03-03T08:05:37;99707.91;;;9.82;45.63
43115;BME280;28727;50.068;14.452;2023-03-03T08:10:54;99710.38;;;9.40;45.29
43115;BME280;28727;50.068;14.452;2023-03-03T08:13:37;99714.34;;;9.62;45.50
43115;BME280;28727;50.068;14.452;2023-03-03T08:18:46;99712.84;;;10.87;45.02
43115;BME280;28727;50.068;14.452;2023-03-03T08:21:25;99707.56;;;11.03;41.69
43115;BME280;28727;50.068;14.452;2023-03-03T08:23:57;99709.97;;;10.72;42.36
43115;BME280;28727;50.068;14.452;2023-03-03T08:26:28;99710.16;;;10.79;41.98
43115;BME280;28727;50.068;14.452;2023-03-03T08:29:00;99717.31;;;10.94;41.62
43115;BME280;28727;50.068;14.452;2023-03-03T08:31:32;99712.22;;;11.09;40.88
43115;BME280;28727;50.068;14.452;2023-03-03T08:34:12;99712.31;;;10.33;42.08
43115;BME280;28727;50.068;14.452;2023-03-03T08:36:44;99722.66;;;10.18;42.28
43115;BME280;28727;50.068;14.452;2023-03-03T08:39:17;99733.13;;;9.59;43.00
43115;BME280;28727;50.068;14.452;2023-03-03T08:41:49;99731.47;;;9.22;43.63
43115;BME280;28727;50.068;14.452;2023-03-03T08:44:21;99729.50;;;8.61;45.21
43115;BME280;28727;50.068;14.452;2023-03-03T08:46:53;99740.13;;;8.05;46.00
43115;BME280;28727;50.068;14.452;2023-03-03T08:49:25;99741.25;;;7.83;47.19
43115;BME280;28727;50.068;14.452;2023-03-03T08:51:57;99747.66;;;7.62;47.98
43115;BME280;28727;50.068;14.452;2023-03-03T08:54:31;99751.97;;;7.53;48.34
43115;BME280;28727;50.068;14.452;2023-03-03T08:57:03;99758.88;;;7.25;48.58
43115;BME280;28727;50.068;14.452;2023-03-03T08:59:38;99748.91;;;7.00;48.67
43115;BME280;28727;50.068;14.452;2023-03-03T09:02:10;99745.78;;;6.66;49.53
43115;BME280;28727;50.068;14.452;2023-03-03T09:04:42;99734.91;;;6.90;49.49
43115;BME280;28727;50.068;14.452;2023-03-03T09:07:14;99743.81;;;6.49;50.07
43115;BME280;28727;50.068;14.452;2023-03-03T09:09:46;99749.84;;;6.09;51.58
43115;BME280;28727;50.068;14.452;2023-03-03T09:12:34;99733.63;;;6.25;51.16
43115;BME280;28727;50.068;14.452;2023-03-03T09:15:23;99735.88;;;6.30;51.26
43115;BME280;28727;50.068;14.452;2023-03-03T09:20:54;99731.16;;;6.73;50.57
43115;BME280;28727;50.068;14.452;2023-03-03T09:23:35;99725.97;;;7.12;50.81
43115;BME280;28727;50.068;14.452;2023-03-03T09:26:30;99736.66;;;7.95;48.46
43115;BME280;28727;50.068;14.452;2023-03-03T09:31:46;99720.56;;;8.72;47.13
43115;BME280;28727;50.068;14.452;2023-03-03T09:34:41;99722.00;;;9.29;45.66
43115;BME280;28727;50.068;14.452;2023-03-03T09:37:28;99722.41;;;9.86;43.57
43115;BME280;28727;50.068;14.452;2023-03-03T09:43:12;99726.72;;;10.97;41.39
43115;BME280;28727;50.068;14.452;2023-03-03T09:46:03;99722.63;;;11.02;41.74
43115;BME280;28727;50.068;14.452;2023-03-03T09:51:54;99713.91;;;11.34;40.45
43115;BME280;28727;50.068;14.452;2023-03-03T10:15:26;99721.25;;;12.67;41.01
43115;BME280;28727;50.068;14.452;2023-03-03T10:27:10;99715.41;;;13.56;38.87
43115;BME280;28727;50.068;14.452;2023-03-03T10:40:02;99710.22;;;13.40;38.64
43115;BME280;28727;50.068;14.452;2023-03-03T10:55:04;99712.78;;;13.02;36.73
43115;BME280;28727;50.068;14.452;2023-03-03T11:05:37;99716.56;;;13.76;37.89
43115;BME280;28727;50.068;14.452;2023-03-03T11:11:11;99708.47;;;13.70;36.93
43115;BME280;28727;50.068;14.452;2023-03-03T11:14:21;99708.63;;;13.53;37.38
43115;BME280;28727;50.068;14.452;2023-03-03T11:26:12;99700.47;;;14.37;36.89
43115;BME280;28727;50.068;14.452;2023-03-03T11:40:47;99694.22;;;14.15;34.50
43115;BME280;28727;50.068;14.452;2023-03-03T11:43:31;99691.84;;;14.64;34.19
43115;BME280;28727;50.068;14.452;2023-03-03T11:46:12;99691.50;;;14.52;37.18
43115;BME280;28727;50.068;14.452;2023-03-03T11:54:26;99694.03;;;13.87;36.23
43115;BME280;28727;50.068;14.452;2023-03-03T11:59:52;99682.75;;;13.33;36.71
43115;BME280;28727;50.068;14.452;2023-03-03T12:02:33;99682.31;;;13.81;35.78
43115;BME280;28727;50.068;14.452;2023-03-03T12:05:22;99680.50;;;13.97;36.33
43115;BME280;28727;50.068;14.452;2023-03-03T12:25:29;99667.34;;;12.52;38.18
43115;BME280;28727;50.068;14.452;2023-03-03T12:33:28;99668.41;;;12.35;40.15
43115;BME280;28727;50.068;14.452;2023-03-03T12:36:14;99662.38;;;12.18;39.87
43115;BME280;28727;50.068;14.452;2023-03-03T12:39:06;99654.25;;;12.50;38.67
43115;BME280;28727;50.068;14.452;2023-03-03T12:44:54;99655.78;;;12.76;38.50
43115;BME280;28727;50.068;14.452;2023-03-03T12:47:38;99667.13;;;13.15;36.83
43115;BME280;28727;50.068;14.452;2023-03-03T12:55:59;99659.13;;;13.23;37.84
43115;BME280;28727;50.068;14.452;2023-03-03T13:10:45;99644.03;;;13.90;35.87
43115;BME280;28727;50.068;14.452;2023-03-03T13:13:37;99649.63;;;13.81;32.69
43115;BME280;28727;50.068;14.452;2023-03-03T13:16:48;99644.78;;;12.87;33.43
43115;BME280;28727;50.068;14.452;2023-03-03T13:19:38;99639.91;;;11.98;34.84
43115;BME280;28727;50.068;14.452;2023-03-03T13:22:17;99640.66;;;11.43;35.05
43115;BME280;28727;50.068;14.452;2023-03-03T13:27:41;99650.41;;;10.86;37.08
43115;BME280;28727;50.068;14.452;2023-03-03T13:30:29;99638.03;;;10.94;38.08
43115;BME280;28727;50.068;14.452;2023-03-03T13:33:16;99636.38;;;11.34;39.07
43115;BME280;28727;50.068;14.452;2023-03-03T13:36:06;99622.28;;;11.82;38.13
43115;BME280;28727;50.068;14.452;2023-03-03T13:38:48;99630.34;;;11.72;36.92
43115;BME280;28727;50.068;14.452;2023-03-03T13:44:19;99629.50;;;11.96;36.10
43115;BME280;28727;50.068;14.452;2023-03-03T13:47:01;99634.84;;;11.56;38.02
43115;BME280;28727;50.068;14.452;2023-03-03T13:49:52;99633.63;;;12.07;38.17
43115;BME280;28727;50.068;14.452;2023-03-03T13:55:34;99620.09;;;11.85;39.76
43115;BME280;28727;50.068;14.452;2023-03-03T14:01:03;99630.44;;;11.24;36.69
43115;BME280;28727;50.068;14.452;2023-03-03T14:03:53;99622.13;;;10.62;37.25
43115;BME280;28727;50.068;14.452;2023-03-03T14:06:28;99617.56;;;10.22;37.70
43115;BME280;28727;50.068;14.452;2023-03-03T14:20:37;99607.66;;;9.30;38.87
43115;BME280;28727;50.068;14.452;2023-03-03T14:26:06;99626.97;;;8.78;40.11
43115;BME280;28727;50.068;14.452;2023-03-03T14:28:46;99623.44;;;8.51;40.61
43115;BME280;28727;50.068;14.452;2023-03-03T14:31:28;99626.41;;;8.39;41.21
43115;BME280;28727;50.068;14.452;2023-03-03T14:36:59;99613.66;;;8.16;42.68
43115;BME280;28727;50.068;14.452;2023-03-03T14:39:39;99622.25;;;8.09;42.97
43115;BME280;28727;50.068;14.452;2023-03-03T14:42:31;99620.47;;;7.82;43.90
43115;BME280;28727;50.068;14.452;2023-03-03T14:45:19;99629.09;;;7.65;44.36
43115;BME280;28727;50.068;14.452;2023-03-03T14:50:59;99624.16;;;7.52;44.97
43115;BME280;28727;50.068;14.452;2023-03-03T14:53:47;99629.56;;;7.41;45.66
43115;BME280;28727;50.068;14.452;2023-03-03T14:59:27;99625.28;;;7.30;46.26
43115;BME280;28727;50.068;14.452;2023-03-03T15:04:47;99625.34;;;6.92;47.42
43115;BME280;28727;50.068;14.452;2023-03-03T15:07:36;99631.41;;;6.92;47.49
43115;BME280;28727;50.068;14.452;2023-03-03T15:10:08;99629.34;;;6.57;47.84
43115;BME280;28727;50.068;14.452;2023-03-03T15:12:43;99624.34;;;6.45;48.30
43115;BME280;28727;50.068;14.452;2023-03-03T15:15:19;99619.94;;;6.55;48.18
43115;BME280;28727;50.068;14.452;2023-03-03T15:17:57;99623.38;;;6.46;48.54
43115;BME280;28727;50.068;14.452;2023-03-03T15:26:29;99619.34;;;6.32;48.48
43115;BME280;28727;50.068;14.452;2023-03-03T15:29:24;99622.63;;;6.25;48.56
43115;BME280;28727;50.068;14.452;2023-03-03T15:56:26;99620.69;;;5.56;50.88
43115;BME280;28727;50.068;14.452;2023-03-03T16:01:33;99608.84;;;5.52;50.35
43115;BME280;28727;50.068;14.452;2023-03-03T16:04:15;99602.69;;;5.42;50.71
43115;BME280;28727;50.068;14.452;2023-03-03T16:10:13;99607.38;;;5.39;50.48
43115;BME280;28727;50.068;14.452;2023-03-03T16:12:52;99605.81;;;5.36;50.75
43115;BME280;28727;50.068;14.452;2023-03-03T16:18:27;99620.75;;;5.35;50.34
43115;BME280;28727;50.068;14.452;2023-03-03T16:29:45;99615.50;;;4.94;50.59
43115;BME280;28727;50.068;14.452;2023-03-03T16:32:31;99614.84;;;4.81;51.17
43115;BME280;28727;50.068;14.452;2023-03-03T16:35:19;99619.75;;;4.74;51.15
43115;BME280;28727;50.068;14.452;2023-03-03T16:37:59;99638.19;;;4.73;51.03
43115;BME280;28727;50.068;14.452;2023-03-03T16:40:46;99638.56;;;4.68;51.41
43115;BME280;28727;50.068;14.452;2023-03-03T16:46:22;99636.13;;;4.44;52.06
43115;BME280;28727;50.068;14.452;2023-03-03T16:52:09;99645.91;;;4.31;52.51
43115;BME280;28727;50.068;14.452;2023-03-03T16:55:08;99659.44;;;4.25;53.42
43115;BME280;28727;50.068;14.452;2023-03-03T16:58:29;99654.03;;;4.17;54.22
43115;BME280;28727;50.068;14.452;2023-03-03T17:12:31;99679.38;;;3.48;56.81
43115;BME280;28727;50.068;14.452;2023-03-03T17:18:32;99695.28;;;3.34;56.86
43115;BME280;28727;50.068;14.452;2023-03-03T17:24:47;99695.25;;;3.23;57.81
43115;BME280;28727;50.068;14.452;2023-03-03T17:27:44;99700.09;;;3.16;57.84
43115;BME280;28727;50.068;14.452;2023-03-03T17:30:52;99684.44;;;3.16;57.71
43115;BME280;28727;50.068;14.452;2023-03-03T17:36:54;99693.41;;;3.12;57.30
43115;BME280;28727;50.068;14.452;2023-03-03T17:45:19;99694.09;;;3.03;58.13
43115;BME280;28727;50.068;14.452;2023-03-03T17:50:52;99697.44;;;3.05;58.94
43115;BME280;28727;50.068;14.452;2023-03-03T17:56:27;99695.41;;;3.09;58.84
43115;BME280;28727;50.068;14.452;2023-03-03T17:59:34;99689.59;;;3.05;58.45
43115;BME280;28727;50.068;14.452;2023-03-03T18:05:44;99698.88;;;2.85;60.11
43115;BME280;28727;50.068;14.452;2023-03-03T18:22:41;99703.53;;;2.45;60.47
43115;BME280;28727;50.068;14.452;2023-03-03T18:25:16;99704.91;;;2.38;60.37
43115;BME280;28727;50.068;14.452;2023-03-03T18:36:33;99712.41;;;2.30;61.00
43115;BME280;28727;50.068;14.452;2023-03-03T18:39:12;99716.91;;;2.28;61.73
43115;BME280;28727;50.068;14.452;2023-03-03T18:50:42;99716.94;;;2.03;62.46
43115;BME280;28727;50.068;14.452;2023-03-03T18:53:25;99723.81;;;2.04;62.51
43115;BME280;28727;50.068;14.452;2023-03-03T18:56:02;99723.72;;;2.05;62.49
43115;BME280;28727;50.068;14.452;2023-03-03T18:58:41;99719.53;;;2.03;62.76
43115;BME280;28727;50.068;14.452;2023-03-03T19:01:34;99711.72;;;2.03;62.95
43115;BME280;28727;50.068;14.452;2023-03-03T19:18:19;99735.19;;;1.52;64.35
43115;BME280;28727;50.068;14.452;2023-03-03T19:21:25;99735.78;;;1.56;64.83
43115;BME280;28727;50.068;14.452;2023-03-03T19:24:01;99738.31;;;1.57;64.00
43115;BME280;28727;50.068;14.452;2023-03-03T19:29:49;99738.81;;;1.62;64.32
43115;BME280;28727;50.068;14.452;2023-03-03T19:41:02;99738.59;;;1.65;64.31
43115;BME280;28727;50.068;14.452;2023-03-03T19:43:55;99747.03;;;1.56;64.41
43115;BME280;28727;50.068;14.452;2023-03-03T19:49:56;99750.06;;;1.50;64.98
43115;BME280;28727;50.068;14.452;2023-03-03T19:55:29;99755.53;;;1.33;64.94
43115;BME280;28727;50.068;14.452;2023-03-03T19:58:19;99752.94;;;1.33;65.20
43115;BME280;28727;50.068;14.452;2023-03-03T20:04:43;99752.47;;;1.14;65.95
43115;BME280;28727;50.068;14.452;2023-03-03T20:08:00;99751.44;;;1.16;66.80
43115;BME280;28727;50.068;14.452;2023-03-03T20:14:02;99749.06;;;1.26;65.87
43115;BME280;28727;50.068;14.452;2023-03-03T20:16:40;99757.25;;;1.20;66.13
43115;BME280;28727;50.068;14.452;2023-03-03T20:25:59;99750.25;;;1.35;65.97
43115;BME280;28727;50.068;14.452;2023-03-03T20:31:39;99746.69;;;1.23;66.49